createdAt,value
2023-03-15T00:00:55.648Z,100527.78
2023-03-15T00:03:24.430Z,100334.53
2023-03-15T00:05:52.277Z,100412.09
2023-03-15T00:08:19.047Z,100396.63
2023-03-15T00:10:46.705Z,100398.34
2023-03-15T00:13:14.697Z,100451.84
2023-03-15T00:15:49.672Z,100370.78
2023-03-15T00:18:17.774Z,100543.41
2023-03-15T00:20:44.432Z,100477.78
2023-03-15T00:23:10.941Z,100533.03
2023-03-15T00:25:37.674Z,100431.19
2023-03-15T00:28:04.348Z,100527.00
2023-03-15T00:30:30.752Z,100508.03
2023-03-15T00:32:57.248Z,100476.06
2023-03-15T00:35:23.987Z,100439.81
2023-03-15T00:37:54.743Z,100526.16
2023-03-15T00:40:21.150Z,100463.13
2023-03-15T00:42:50.412Z,100403.53
2023-03-15T00:45:19.031Z,100482.13
2023-03-15T00:47:45.678Z,100415.63
2023-03-15T00:50:12.243Z,100577.94
2023-03-15T00:52:38.929Z,100564.16
2023-03-15T00:55:05.696Z,100490.66
2023-03-15T00:57:35.273Z,100491.59
2023-03-15T01:00:08.614Z,100557.22
2023-03-15T01:02:37.225Z,100537.38
2023-03-15T01:05:08.623Z,100572.78
2023-03-15T01:07:37.857Z,100587.47
2023-03-15T01:10:06.437Z,100558.09
2023-03-15T01:12:34.044Z,100588.34
2023-03-15T01:15:04.337Z,100601.22
2023-03-15T01:17:30.789Z,100331.00
2023-03-15T01:19:59.053Z,100576.16
2023-03-15T01:22:26.344Z,100466.28
2023-03-15T01:24:52.854Z,100477.66
2023-03-15T01:27:19.406Z,100503.47
2023-03-15T01:29:45.809Z,100526.69
2023-03-15T01:32:15.089Z,100457.56
2023-03-15T01:34:43.125Z,100503.19
2023-03-15T01:37:10.465Z,100501.50
2023-03-15T01:39:36.813Z,100595.84
2023-03-15T01:42:03.337Z,100567.28
2023-03-15T01:44:50.759Z,100605.31
2023-03-15T01:47:17.336Z,100596.72
2023-03-15T01:49:47.989Z,100573.41
2023-03-15T01:52:20.251Z,100556.97
2023-03-15T01:54:57.532Z,100427.38
2023-03-15T01:57:30.701Z,100460.09
2023-03-15T02:00:10.573Z,100550.88
2023-03-15T02:02:46.474Z,100451.50
2023-03-15T02:05:23.032Z,100395.31
2023-03-15T02:07:51.004Z,100557.00
2023-03-15T02:10:25.737Z,100513.88
2023-03-15T02:12:56.261Z,100481.06
2023-03-15T02:15:22.860Z,100424.91
2023-03-15T02:17:50.534Z,100481.97
2023-03-15T02:20:31.582Z,100493.88
2023-03-15T02:23:01.232Z,100588.97
2023-03-15T02:26:02.164Z,100612.38
2023-03-15T02:28:29.670Z,100480.94
2023-03-15T02:30:59.886Z,100413.66
2023-03-15T02:33:33.654Z,100342.84
2023-03-15T02:36:18.618Z,100610.66
2023-03-15T02:38:45.148Z,100615.94
2023-03-15T02:41:13.478Z,100396.41
2023-03-15T02:43:42.057Z,100608.75
2023-03-15T02:46:12.500Z,100411.88
2023-03-15T02:48:41.108Z,100460.28
2023-03-15T02:51:07.563Z,100466.28
2023-03-15T02:53:34.211Z,100474.06
2023-03-15T02:56:00.669Z,100492.19
2023-03-15T02:58:27.214Z,100568.22
2023-03-15T03:00:54.020Z,100550.09
2023-03-15T03:03:21.110Z,100635.78
2023-03-15T03:05:53.618Z,100471.41
2023-03-15T03:08:20.174Z,100492.09
2023-03-15T03:10:46.728Z,100608.72
2023-03-15T03:13:13.260Z,100505.88
2023-03-15T03:15:39.695Z,100471.41
2023-03-15T03:18:09.327Z,100569.84
2023-03-15T03:20:35.782Z,100581.13
2023-03-15T03:23:06.194Z,100589.75
2023-03-15T03:25:33.696Z,100564.63
2023-03-15T03:28:03.983Z,100517.16
2023-03-15T03:30:31.151Z,100551.72
2023-03-15T03:32:57.797Z,100658.09
2023-03-15T03:35:24.164Z,100647.59
2023-03-15T03:37:53.749Z,100547.00
2023-03-15T03:40:20.392Z,100551.38
2023-03-15T03:42:46.812Z,100615.34
2023-03-15T03:45:13.215Z,100664.66
2023-03-15T03:47:39.687Z,100650.72
2023-03-15T03:50:07.714Z,100624.56
2023-03-15T03:52:34.164Z,100665.06
2023-03-15T03:55:00.594Z,100592.31
2023-03-15T03:57:27.083Z,100653.03
2023-03-15T03:59:53.567Z,100710.03
2023-03-15T04:02:20.196Z,100713.53
2023-03-15T04:04:50.236Z,100620.88
2023-03-15T04:07:19.170Z,100683.28
2023-03-15T04:09:45.580Z,100712.81
2023-03-15T04:12:12.301Z,100661.63
2023-03-15T04:14:38.730Z,100659.91
2023-03-15T04:17:05.238Z,100623.53
2023-03-15T04:19:31.738Z,100685.88
2023-03-15T04:21:58.094Z,100704.75
2023-03-15T04:24:24.526Z,100706.66
2023-03-15T04:26:50.931Z,100644.38
2023-03-15T04:29:17.288Z,100735.19
2023-03-15T04:31:43.772Z,100606.13
2023-03-15T04:34:10.330Z,100621.66
2023-03-15T04:36:39.206Z,100754.16
2023-03-15T04:39:07.626Z,100698.00
2023-03-15T04:41:34.849Z,100732.75
2023-03-15T04:44:03.544Z,100685.03
2023-03-15T04:46:31.780Z,100651.22
2023-03-15T04:48:58.784Z,100596.66
2023-03-15T04:51:25.238Z,100607.84
2023-03-15T04:53:51.781Z,100632.00
2023-03-15T04:56:20.958Z,100644.31
2023-03-15T04:58:50.164Z,100656.34
2023-03-15T05:01:16.972Z,100657.19
2023-03-15T05:03:43.511Z,100694.44
2023-03-15T05:06:10.158Z,100738.59
2023-03-15T05:08:37.275Z,100723.88
2023-03-15T05:11:18.648Z,100785.50
2023-03-15T05:13:45.353Z,100647.72
2023-03-15T05:16:12.310Z,100753.34
2023-03-15T05:18:38.831Z,100678.91
2023-03-15T05:21:06.134Z,100760.28
2023-03-15T05:23:33.990Z,100657.28
2023-03-15T05:26:03.764Z,100653.88
2023-03-15T05:28:32.916Z,100810.69
2023-03-15T05:31:00.627Z,100675.41
2023-03-15T05:33:27.261Z,100724.78
2023-03-15T05:35:56.984Z,100716.16
2023-03-15T05:38:35.878Z,100649.41
2023-03-15T05:41:02.321Z,100763.75
2023-03-15T05:43:36.639Z,100680.63
2023-03-15T05:46:05.931Z,100723.91
2023-03-15T05:49:35.317Z,100697.88
2023-03-15T05:52:01.826Z,100725.56
2023-03-15T05:54:30.381Z,100729.06
2023-03-15T05:57:08.385Z,100851.22
2023-03-15T05:59:39.999Z,100704.72
2023-03-15T06:02:09.235Z,100737.69
2023-03-15T06:04:39.315Z,100734.28
2023-03-15T06:07:20.758Z,100706.75
2023-03-15T06:09:47.410Z,100754.28
2023-03-15T06:12:15.160Z,100686.81
2023-03-15T06:14:50.959Z,100729.25
2023-03-15T06:17:23.675Z,100755.16
2023-03-15T06:19:50.522Z,100775.16
2023-03-15T06:22:22.962Z,100760.41
2023-03-15T06:24:49.640Z,100765.56
2023-03-15T06:27:22.324Z,100730.00
2023-03-15T06:29:53.064Z,100751.69
2023-03-15T06:32:22.640Z,100832.41
2023-03-15T06:34:52.571Z,100795.00
2023-03-15T06:37:28.981Z,100876.50
2023-03-15T06:40:03.161Z,100857.28
2023-03-15T06:42:29.732Z,100767.19
2023-03-15T06:44:56.354Z,100905.94
2023-03-15T06:47:22.999Z,100815.88
2023-03-15T06:49:51.759Z,100843.47
2023-03-15T06:52:18.913Z,100827.97
2023-03-15T06:54:45.491Z,100844.50
2023-03-15T06:57:14.814Z,100836.50
2023-03-15T06:59:59.738Z,100875.72
2023-03-15T07:02:26.927Z,100918.22
2023-03-15T07:04:53.570Z,100944.97
2023-03-15T07:07:20.107Z,100916.38
2023-03-15T07:09:46.720Z,100864.38
2023-03-15T07:12:13.471Z,100975.31
2023-03-15T07:14:39.836Z,100929.38
2023-03-15T07:17:06.349Z,100875.50
2023-03-15T07:19:32.716Z,100958.81
2023-03-15T07:22:03.123Z,100941.41
2023-03-15T07:24:30.552Z,100830.38
2023-03-15T07:26:57.125Z,100989.09
2023-03-15T07:29:24.645Z,100824.44
2023-03-15T07:31:51.932Z,100943.97
2023-03-15T07:34:19.188Z,100994.34
2023-03-15T07:36:45.656Z,100972.75
2023-03-15T07:39:12.112Z,100844.34
2023-03-15T07:41:38.739Z,100846.22
2023-03-15T07:44:05.839Z,101029.13
2023-03-15T07:46:40.159Z,100908.56
2023-03-15T07:49:06.748Z,100940.69
2023-03-15T07:51:33.264Z,100978.06
2023-03-15T07:53:59.806Z,100888.72
2023-03-15T07:56:26.211Z,100862.81
2023-03-15T07:58:52.619Z,101037.66
2023-03-15T08:01:19.096Z,100925.91
2023-03-15T08:03:45.504Z,100973.59
2023-03-15T08:06:11.892Z,100925.19
2023-03-15T08:08:38.353Z,101033.66
2023-03-15T08:11:05.966Z,100998.09
2023-03-15T08:13:32.623Z,100937.53
2023-03-15T08:15:59.525Z,101046.75
2023-03-15T08:18:31.634Z,100901.91
2023-03-15T08:20:59.123Z,101010.31
2023-03-15T08:23:25.733Z,100913.97
2023-03-15T08:25:52.100Z,101059.75
2023-03-15T08:28:18.576Z,101068.47
2023-03-15T08:30:44.945Z,101001.66
2023-03-15T08:33:12.455Z,101096.25
2023-03-15T08:35:39.146Z,101090.22
2023-03-15T08:38:05.624Z,100987.91
2023-03-15T08:40:34.331Z,101095.41
2023-03-15T08:43:00.720Z,101041.69
2023-03-15T08:45:27.640Z,101066.88
2023-03-15T08:47:58.143Z,100972.41
2023-03-15T08:50:25.679Z,101045.19
2023-03-15T08:52:52.386Z,101014.00
2023-03-15T08:55:19.324Z,100995.81
2023-03-15T08:57:46.476Z,101062.59
2023-03-15T09:00:23.274Z,101019.22
2023-03-15T09:02:51.943Z,101085.13
2023-03-15T09:05:20.628Z,101026.13
2023-03-15T09:07:48.213Z,100986.31
2023-03-15T09:10:16.771Z,101131.13
2023-03-15T09:12:46.032Z,101055.66
2023-03-15T09:15:13.170Z,101129.34
2023-03-15T09:17:40.574Z,101071.25
2023-03-15T09:20:14.809Z,101061.72
2023-03-15T09:22:41.608Z,101151.03
2023-03-15T09:25:09.583Z,101041.78
2023-03-15T09:27:36.838Z,100967.25
2023-03-15T09:30:03.953Z,101078.19
2023-03-15T09:32:36.202Z,101123.28
2023-03-15T09:35:11.350Z,101007.13
2023-03-15T09:37:37.841Z,101062.53
2023-03-15T09:40:05.058Z,101156.06
2023-03-15T09:42:59.555Z,101062.47
2023-03-15T09:45:48.589Z,101143.00
2023-03-15T09:48:26.121Z,101146.50
2023-03-15T09:51:05.635Z,101138.75
2023-03-15T09:54:09.020Z,101171.75
2023-03-15T09:56:59.885Z,101165.78
2023-03-15T09:59:34.194Z,100962.03
2023-03-15T10:02:25.503Z,101036.59
2023-03-15T10:04:58.689Z,101041.78
2023-03-15T10:07:26.207Z,101123.31
2023-03-15T10:10:03.949Z,100995.81
2023-03-15T10:12:41.346Z,101140.63
2023-03-15T10:15:26.243Z,101147.50
2023-03-15T10:17:55.755Z,101166.44
2023-03-15T10:20:26.441Z,101095.06
2023-03-15T10:23:03.235Z,101134.91
2023-03-15T10:25:31.234Z,101053.56
2023-03-15T10:28:08.342Z,101166.31
2023-03-15T10:30:37.569Z,101119.41
2023-03-15T10:33:23.740Z,101058.06
2023-03-15T10:35:52.456Z,101161.22
2023-03-15T10:38:24.120Z,101017.16
2023-03-15T10:40:57.209Z,101155.53
2023-03-15T10:43:23.608Z,101160.63
2023-03-15T10:46:10.150Z,101169.44
2023-03-15T10:48:51.891Z,101085.97
2023-03-15T10:51:25.229Z,101156.94
2023-03-15T10:54:13.262Z,101066.31
2023-03-15T10:56:50.119Z,101039.81
2023-03-15T10:59:20.066Z,101141.19
2023-03-15T11:01:48.643Z,101115.38
2023-03-15T11:04:33.109Z,101121.50
2023-03-15T11:07:07.705Z,101120.38
2023-03-15T11:09:45.539Z,101167.19
2023-03-15T11:12:26.504Z,101168.00
2023-03-15T11:15:07.635Z,101159.06
2023-03-15T11:17:46.969Z,101091.72
2023-03-15T11:20:26.369Z,101169.28
2023-03-15T11:22:54.505Z,101012.81
2023-03-15T11:25:25.250Z,101067.03
2023-03-15T11:27:53.591Z,101169.34
2023-03-15T11:30:28.449Z,101158.47
2023-03-15T11:32:55.535Z,101087.25
2023-03-15T11:35:40.965Z,101156.03
2023-03-15T11:38:25.896Z,101188.50
2023-03-15T11:40:58.678Z,101194.97
2023-03-15T11:43:31.259Z,101172.28
2023-03-15T11:46:05.983Z,101021.38
2023-03-15T11:48:47.193Z,101105.81
2023-03-15T11:51:14.270Z,101092.66
2023-03-15T11:53:52.902Z,101209.09
2023-03-15T11:56:58.086Z,101205.28
2023-03-15T11:59:30.490Z,101185.75
2023-03-15T12:02:16.306Z,101202.84
2023-03-15T12:04:45.708Z,101191.03
2023-03-15T12:07:15.118Z,101198.84
2023-03-15T12:10:18.268Z,101169.50
2023-03-15T12:12:47.346Z,101208.81
2023-03-15T12:15:22.430Z,101205.75
2023-03-15T12:18:02.068Z,101186.50
2023-03-15T12:20:48.684Z,101206.66
2023-03-15T12:23:32.850Z,101180.06
2023-03-15T12:26:06.568Z,101184.22
2023-03-15T12:28:41.949Z,101199.56
2023-03-15T12:31:14.700Z,101199.09
2023-03-15T12:33:53.986Z,101195.53
2023-03-15T12:36:32.923Z,101199.72
2023-03-15T12:39:04.327Z,101179.56
2023-03-15T12:41:37.508Z,101183.34
2023-03-15T12:44:36.009Z,101180.91
2023-03-15T12:47:04.456Z,100962.78
2023-03-15T12:49:38.655Z,101028.25
2023-03-15T12:52:11.211Z,101177.53
2023-03-15T12:54:55.070Z,101143.75
2023-03-15T12:57:24.762Z,101165.09
2023-03-15T12:59:55.551Z,101169.56
2023-03-15T13:02:42.852Z,101176.44
2023-03-15T13:05:09.885Z,101189.25
2023-03-15T13:08:18.115Z,101141.59
2023-03-15T13:11:11.152Z,101184.63
2023-03-15T13:14:08.270Z,101147.06
2023-03-15T13:16:56.547Z,101182.91
2023-03-15T13:19:27.397Z,101183.34
2023-03-15T13:22:07.588Z,101174.78
2023-03-15T13:24:36.730Z,101184.34
2023-03-15T13:27:35.812Z,101162.16
2023-03-15T13:30:29.671Z,101062.31
2023-03-15T13:33:10.975Z,101176.44
2023-03-15T13:35:53.372Z,101128.28
2023-03-15T13:38:26.291Z,101177.84
2023-03-15T13:40:54.199Z,101187.88
2023-03-15T13:43:24.954Z,101181.34
2023-03-15T13:45:53.666Z,101130.50
2023-03-15T13:48:20.113Z,101132.25
2023-03-15T13:50:50.457Z,101110.72
2023-03-15T13:53:39.547Z,101078.88
2023-03-15T13:56:17.986Z,101096.69
2023-03-15T13:58:45.035Z,101090.00
2023-03-15T14:01:12.989Z,101144.69
2023-03-15T14:03:43.661Z,101153.22
2023-03-15T14:06:20.646Z,101120.16
2023-03-15T14:08:48.568Z,101062.59
2023-03-15T14:11:25.401Z,101189.50
2023-03-15T14:13:59.273Z,101185.22
2023-03-15T14:17:02.885Z,101142.53
2023-03-15T14:19:36.649Z,101173.72
2023-03-15T14:22:16.075Z,101166.19
2023-03-15T14:24:46.500Z,101192.41
2023-03-15T14:27:22.383Z,101202.78
2023-03-15T14:29:51.385Z,101097.00
2023-03-15T14:32:23.703Z,101212.66
2023-03-15T14:34:50.074Z,101207.63
2023-03-15T14:37:35.629Z,101190.31
2023-03-15T14:40:16.541Z,101144.19
2023-03-15T14:42:44.118Z,101162.22
2023-03-15T14:45:10.982Z,101104.81
2023-03-15T14:47:55.115Z,101111.94
2023-03-15T14:50:24.654Z,101113.31
2023-03-15T14:52:51.338Z,101206.59
2023-03-15T14:55:29.384Z,101167.63
2023-03-15T14:57:55.860Z,101141.25
2023-03-15T15:00:22.542Z,101153.56
2023-03-15T15:02:53.368Z,101155.97
2023-03-15T15:05:32.027Z,101195.78
2023-03-15T15:08:22.110Z,101150.41
2023-03-15T15:10:50.407Z,101084.84
2023-03-15T15:13:23.167Z,101164.22
2023-03-15T15:15:55.726Z,101212.56
2023-03-15T15:18:25.069Z,101171.16
2023-03-15T15:20:55.237Z,101153.56
2023-03-15T15:23:30.528Z,101087.56
2023-03-15T15:26:00.215Z,101176.91
2023-03-15T15:28:35.292Z,101065.44
2023-03-15T15:31:04.028Z,101038.97
2023-03-15T15:33:32.632Z,101085.38
2023-03-15T15:35:59.144Z,101100.81
2023-03-15T15:38:38.155Z,101074.19
2023-03-15T15:41:05.115Z,101090.88
2023-03-15T15:43:33.572Z,101080.56
2023-03-15T15:46:00.251Z,101177.00
2023-03-15T15:48:26.797Z,101088.44
2023-03-15T15:50:53.158Z,101060.72
2023-03-15T15:53:19.557Z,101151.66
2023-03-15T15:55:46.363Z,101115.91
2023-03-15T15:58:14.033Z,101090.88
2023-03-15T16:00:40.589Z,101121.03
2023-03-15T16:03:16.119Z,101141.97
2023-03-15T16:05:43.544Z,101149.28
2023-03-15T16:08:20.945Z,101172.06
2023-03-15T16:10:47.301Z,101170.56
2023-03-15T16:13:13.712Z,101069.91
2023-03-15T16:15:40.174Z,101174.69
2023-03-15T16:18:11.017Z,101174.69
2023-03-15T16:20:39.360Z,101056.34
2023-03-15T16:23:06.299Z,101071.91
2023-03-15T16:25:36.132Z,101172.75
2023-03-15T16:28:04.441Z,101033.53
2023-03-15T16:30:32.382Z,101140.78
2023-03-15T16:32:59.127Z,101191.91
2023-03-15T16:35:35.848Z,101088.75
2023-03-15T16:38:06.099Z,101119.09
2023-03-15T16:40:34.495Z,101188.16
2023-03-15T16:43:01.268Z,101068.19
2023-03-15T16:45:27.900Z,101200.63
2023-03-15T16:47:56.243Z,101175.31
2023-03-15T16:50:24.113Z,101209.94
2023-03-15T16:52:54.663Z,101208.28
2023-03-15T16:55:27.025Z,101167.94
2023-03-15T16:57:53.547Z,101132.94
2023-03-15T17:00:20.724Z,101186.31
2023-03-15T17:02:54.785Z,101091.31
2023-03-15T17:05:21.702Z,101208.09
2023-03-15T17:07:50.109Z,101167.91
2023-03-15T17:10:23.067Z,101173.13
2023-03-15T17:12:51.300Z,101086.84
2023-03-15T17:15:20.357Z,101214.91
2023-03-15T17:17:48.322Z,101218.31
2023-03-15T17:20:21.427Z,101200.50
2023-03-15T17:22:52.766Z,101203.06
2023-03-15T17:25:19.585Z,101199.00
2023-03-15T17:27:47.475Z,101217.25
2023-03-15T17:30:28.928Z,101222.41
2023-03-15T17:32:55.720Z,101172.28
2023-03-15T17:35:26.770Z,101210.50
2023-03-15T17:37:53.495Z,101136.94
2023-03-15T17:40:24.446Z,101120.56
2023-03-15T17:42:51.993Z,101015.81
2023-03-15T17:45:24.191Z,101149.09
2023-03-15T17:47:51.885Z,101232.25
2023-03-15T17:50:18.964Z,101155.41
2023-03-15T17:52:48.093Z,101238.34
2023-03-15T17:55:19.901Z,101210.72
2023-03-15T17:57:54.645Z,101222.97
2023-03-15T18:00:23.553Z,101221.25
2023-03-15T18:02:58.819Z,101235.91
2023-03-15T18:05:27.059Z,101202.31
2023-03-15T18:07:59.125Z,101195.38
2023-03-15T18:10:33.483Z,101211.09
2023-03-15T18:12:59.953Z,101020.63
2023-03-15T18:15:26.349Z,101243.13
2023-03-15T18:17:52.764Z,101154.97
2023-03-15T18:20:22.129Z,101259.88
2023-03-15T18:22:48.909Z,101240.84
2023-03-15T18:25:20.578Z,101260.72
2023-03-15T18:27:47.727Z,101245.94
2023-03-15T18:30:18.192Z,101122.22
2023-03-15T18:32:44.984Z,101251.28
2023-03-15T18:35:21.104Z,101263.22
2023-03-15T18:37:47.619Z,101183.75
2023-03-15T18:40:17.183Z,101269.63
2023-03-15T18:42:44.203Z,101268.81
2023-03-15T18:45:20.738Z,101234.09
2023-03-15T18:47:47.450Z,101235.88
2023-03-15T18:50:15.250Z,101260.91
2023-03-15T18:52:41.798Z,101232.47
2023-03-15T18:55:10.884Z,101151.44
2023-03-15T18:57:37.716Z,101236.72
2023-03-15T19:00:13.438Z,101226.34
2023-03-15T19:02:45.585Z,101257.47
2023-03-15T19:05:13.486Z,101254.97
2023-03-15T19:07:40.395Z,101263.72
2023-03-15T19:10:10.434Z,101241.34
2023-03-15T19:12:37.382Z,101236.06
2023-03-15T19:15:05.881Z,101206.53
2023-03-15T19:17:32.789Z,101126.31
2023-03-15T19:19:59.246Z,101086.34
2023-03-15T19:22:28.981Z,101157.31
2023-03-15T19:24:55.367Z,101243.22
2023-03-15T19:27:21.724Z,101216.16
2023-03-15T19:29:48.221Z,101128.81
2023-03-15T19:32:14.618Z,101156.47
2023-03-15T19:34:41.344Z,101215.22
2023-03-15T19:37:08.139Z,101227.66
2023-03-15T19:39:34.568Z,101148.84
2023-03-15T19:42:00.966Z,101145.50
2023-03-15T19:44:27.965Z,101174.13
2023-03-15T19:46:54.384Z,101134.34
2023-03-15T19:49:20.856Z,101245.00
2023-03-15T19:51:47.184Z,101240.72
2023-03-15T19:54:13.531Z,101211.84
2023-03-15T19:56:39.980Z,101193.09
2023-03-15T19:59:06.393Z,101215.59
2023-03-15T20:01:33.108Z,101236.50
2023-03-15T20:04:00.029Z,101247.75
2023-03-15T20:06:26.402Z,101220.22
2023-03-15T20:08:53.115Z,101193.38
2023-03-15T20:11:25.113Z,101250.50
2023-03-15T20:13:52.689Z,101176.16
2023-03-15T20:16:20.936Z,101276.88
2023-03-15T20:18:48.711Z,101243.81
2023-03-15T20:21:15.081Z,101243.97
2023-03-15T20:23:42.441Z,101131.31
2023-03-15T20:26:11.322Z,101263.84
2023-03-15T20:28:41.828Z,101261.22
2023-03-15T20:31:10.120Z,101122.56
2023-03-15T20:33:36.575Z,101242.38
2023-03-15T20:36:03.735Z,101085.34
2023-03-15T20:38:30.484Z,101176.34
2023-03-15T20:40:57.052Z,101212.63
2023-03-15T20:43:23.697Z,101150.25
2023-03-15T20:45:54.752Z,101263.88
2023-03-15T20:48:23.456Z,101276.88
2023-03-15T20:50:49.925Z,101266.69
2023-03-15T20:53:16.377Z,101275.38
2023-03-15T20:55:43.574Z,101062.16
2023-03-15T20:58:11.092Z,101121.06
2023-03-15T21:00:40.805Z,101252.72
2023-03-15T21:03:10.629Z,101212.81
2023-03-15T21:05:38.681Z,101055.25
2023-03-15T21:08:08.394Z,101235.44
2023-03-15T21:10:35.635Z,101237.16
2023-03-15T21:13:09.491Z,101227.78
2023-03-15T21:15:45.714Z,101258.06
2023-03-15T21:18:13.509Z,101223.34
2023-03-15T21:20:40.868Z,101246.06
2023-03-15T21:23:07.393Z,101219.94
2023-03-15T21:25:33.783Z,101196.50
2023-03-15T21:28:00.391Z,101240.84
2023-03-15T21:30:26.995Z,101051.78
2023-03-15T21:32:53.429Z,101018.06
2023-03-15T21:35:21.880Z,101227.78
2023-03-15T21:37:48.406Z,101134.19
2023-03-15T21:40:14.996Z,101062.22
2023-03-15T21:42:43.384Z,101214.75
2023-03-15T21:45:11.929Z,101100.44
2023-03-15T21:47:38.375Z,101194.91
2023-03-15T21:50:06.889Z,101097.00
2023-03-15T21:52:33.777Z,101136.81
2023-03-15T21:55:01.069Z,100977.47
2023-03-15T21:57:27.661Z,101218.44
2023-03-15T21:59:54.088Z,101068.50
2023-03-15T22:02:20.455Z,101072.81
2023-03-15T22:04:46.972Z,101050.31
2023-03-15T22:07:13.364Z,101138.63
2023-03-15T22:09:41.606Z,101236.63
2023-03-15T22:12:08.811Z,101223.69
2023-03-15T22:14:35.385Z,101081.50
2023-03-15T22:17:04.779Z,101212.47
2023-03-15T22:19:31.968Z,101207.22
2023-03-15T22:21:58.700Z,101169.09
2023-03-15T22:24:25.305Z,101214.25
2023-03-15T22:26:52.977Z,101220.34
2023-03-15T22:29:19.472Z,101173.41
2023-03-15T22:31:45.819Z,101150.91
2023-03-15T22:34:12.234Z,101009.63
2023-03-15T22:36:38.700Z,101042.50
2023-03-15T22:39:09.074Z,101208.94
2023-03-15T22:41:35.853Z,101199.38
2023-03-15T22:44:02.309Z,101221.13
2023-03-15T22:46:34.782Z,101059.03
2023-03-15T22:49:02.240Z,100991.53
2023-03-15T22:51:28.818Z,101022.69
2023-03-15T22:53:55.269Z,101121.50
2023-03-15T22:56:21.813Z,101189.09
2023-03-15T22:58:48.640Z,101176.97
2023-03-15T23:01:15.131Z,101026.16
2023-03-15T23:03:41.566Z,101190.88
2023-03-15T23:06:07.946Z,101191.75
2023-03-15T23:08:34.296Z,101190.91
2023-03-15T23:11:00.760Z,101095.53
2023-03-15T23:13:27.205Z,101193.53
2023-03-15T23:15:54.247Z,101173.59
2023-03-15T23:18:21.999Z,101177.06
2023-03-15T23:20:48.396Z,101038.31
2023-03-15T23:23:14.785Z,101182.25
2023-03-15T23:25:41.331Z,101131.97
2023-03-15T23:28:07.810Z,101208.31
2023-03-15T23:30:36.195Z,101078.22
2023-03-15T23:33:03.697Z,101085.16
2023-03-15T23:35:31.747Z,101015.81
2023-03-15T23:37:58.320Z,101182.25
2023-03-15T23:40:25.806Z,101175.31
2023-03-15T23:42:58.804Z,101172.72
2023-03-15T23:45:27.625Z,100984.63
2023-03-15T23:47:54.082Z,100998.44
2023-03-15T23:50:20.542Z,101164.94
2023-03-15T23:52:47.026Z,101171.84
2023-03-15T23:55:13.467Z,101164.91
2023-03-15T23:57:40.340Z,101118.09
